createdAt,value
2023-03-06T00:03:25.211Z,2.12933
2023-03-06T00:13:26.408Z,2.15375
2023-03-06T00:23:27.569Z,2.20036
2023-03-06T00:33:28.732Z,2.22446
2023-03-06T00:43:29.898Z,2.14709
2023-03-06T00:53:31.258Z,2.17531
2023-03-06T01:03:32.505Z,2.19529
2023-03-06T01:13:33.651Z,2.11633
2023-03-06T01:23:34.811Z,2.10238
2023-03-06T01:33:35.965Z,2.22066
2023-03-06T01:43:37.121Z,2.25744
2023-03-06T01:53:38.283Z,2.36811
2023-03-06T02:03:39.868Z,2.25205
2023-03-06T02:13:41.279Z,2.29708
2023-03-06T02:23:42.494Z,2.37445
2023-03-06T02:33:43.658Z,2.43153
2023-03-06T02:43:44.813Z,2.39411
2023-03-06T02:53:45.987Z,2.37953
2023-03-06T03:03:47.114Z,2.43121
2023-03-06T03:13:48.270Z,2.3957
2023-03-06T03:23:49.467Z,2.41409
2023-03-06T03:33:50.846Z,2.42519
2023-03-06T03:43:52.043Z,2.53047
2023-03-06T03:53:53.212Z,2.62433
2023-03-06T04:03:54.370Z,2.79589
2023-03-06T04:13:55.588Z,2.73405
2023-03-06T04:23:56.760Z,2.88721
2023-03-06T04:33:57.924Z,3.22144
2023-03-06T04:43:59.091Z,3.3077
2023-03-06T04:54:00.420Z,3.26521
2023-03-06T05:04:01.730Z,3.13836
2023-03-06T05:14:03.461Z,3.18244
2023-03-06T05:24:05.256Z,3.16595
2023-03-06T05:34:06.978Z,3.36002
2023-03-06T05:44:08.734Z,3.53602
2023-03-06T05:54:10.193Z,3.57185
2023-03-06T06:04:11.650Z,3.60388
2023-03-06T06:14:12.830Z,3.68411
2023-03-06T06:24:14.016Z,3.89245
2023-03-06T06:34:15.465Z,3.93177
2023-03-06T06:44:16.667Z,4.02912
2023-03-06T06:54:17.806Z,4.00946
2023-03-06T07:04:18.929Z,3.97204
2023-03-06T07:14:20.120Z,4.09254
2023-03-06T07:24:21.573Z,4.11316
2023-03-06T07:34:22.726Z,4.24032
2023-03-06T07:44:23.877Z,4.17531
2023-03-06T07:54:25.049Z,4.14962
2023-03-06T08:04:28.293Z,4.13726
2023-03-06T08:14:30.169Z,4.20131
2023-03-06T08:24:31.560Z,4.24761
2023-03-06T08:34:32.742Z,4.47815
2023-03-06T08:44:33.947Z,4.48672
2023-03-06T08:54:35.139Z,4.69157
2023-03-06T09:04:36.311Z,4.82951
2023-03-06T09:14:37.486Z,4.92243
2023-03-06T09:24:38.658Z,5.03596
2023-03-06T09:34:39.853Z,5.14219
2023-03-06T09:44:41.204Z,5.22971
2023-03-06T09:54:42.406Z,5.23701
2023-03-06T10:04:43.631Z,5.39525
2023-03-06T10:14:47.749Z,5.63023
2023-03-06T10:24:50.161Z,5.76818
2023-03-06T10:34:51.583Z,5.98889
2023-03-06T10:44:52.770Z,6.22388
2023-03-06T10:54:53.918Z,6.36817
2023-03-06T11:04:55.152Z,6.59522
2023-03-06T11:14:56.377Z,6.83497
2023-03-06T11:24:57.520Z,6.98497
2023-03-06T11:34:58.795Z,7.20061
2023-03-06T11:45:01.316Z,7.30875
2023-03-06T11:55:04.350Z,7.48507
2023-03-06T12:05:06.149Z,7.67788
2023-03-06T12:15:07.959Z,7.57894
2023-03-06T12:25:09.531Z,7.96932
2023-03-06T12:35:11.058Z,21.7276
2023-03-06T12:45:12.247Z,8.25124
2023-03-06T12:55:13.453Z,8.23919
2023-03-06T13:05:14.623Z,8.40854
2023-03-06T13:15:15.762Z,7.9468
2023-03-06T13:25:16.982Z,5.4704
2023-03-06T13:35:18.182Z,5.97652
2023-03-06T13:45:19.405Z,6.15252
2023-03-06T13:55:20.777Z,6.1687
2023-03-06T14:05:22.009Z,6.04883
2023-03-06T14:15:23.228Z,6.16045
2023-03-06T14:25:24.379Z,6.42208
2023-03-06T14:35:25.643Z,6.59173
2023-03-06T14:45:26.897Z,6.85558
2023-03-06T14:55:28.300Z,6.83687
2023-03-06T15:05:29.484Z,6.93423
2023-03-06T15:15:30.906Z,7.04173
2023-03-06T15:25:32.060Z,7.10357
2023-03-06T15:35:35.180Z,6.0983
2023-03-06T15:45:37.750Z,5.79323
2023-03-06T15:55:38.894Z,5.57822
2023-03-06T16:05:40.038Z,5.58488
2023-03-06T16:15:41.522Z,4.26886
2023-03-06T16:25:42.689Z,4.1826
2023-03-06T16:35:43.891Z,4.26981
2023-03-06T16:45:45.238Z,4.71028
2023-03-06T16:55:46.463Z,4.7366
2023-03-06T17:05:47.740Z,4.8089
2023-03-06T17:15:48.960Z,4.82571
2023-03-06T17:25:50.264Z,4.82064
2023-03-06T17:35:51.723Z,4.88216
2023-03-06T17:45:52.995Z,4.88628
2023-03-06T17:55:54.135Z,4.75277
2023-03-06T18:05:55.322Z,4.5216
2023-03-06T18:15:56.535Z,4.46705
2023-03-06T18:25:57.724Z,4.43281
2023-03-06T18:35:58.943Z,4.41378
2023-03-06T18:46:00.249Z,4.32118
2023-03-06T18:56:01.589Z,4.30533
2023-03-06T19:06:03.285Z,4.27615
2023-03-06T19:16:05.224Z,4.26442
2023-03-06T19:26:07.026Z,4.17119
2023-03-06T19:36:08.752Z,4.13377
2023-03-06T19:46:10.209Z,4.10206
2023-03-06T19:56:11.693Z,4.01834
2023-03-06T20:06:12.853Z,4.04054
2023-03-06T20:16:14.059Z,4.04783
2023-03-06T20:26:15.409Z,3.98695
2023-03-06T20:36:16.637Z,3.84234
2023-03-06T20:46:17.824Z,3.74404
2023-03-06T20:56:19.087Z,3.66571
2023-03-06T21:06:20.427Z,3.61688
2023-03-06T21:16:21.754Z,3.53855
2023-03-06T21:26:22.917Z,3.47196
2023-03-06T21:36:24.086Z,3.43613
2023-03-06T21:46:25.248Z,3.36827
2023-03-06T21:56:26.404Z,3.18434
2023-03-06T22:06:27.686Z,3.10475
2023-03-06T22:16:28.907Z,3.06226
2023-03-06T22:26:30.080Z,3.03879
2023-03-06T22:36:31.520Z,2.88626
2023-03-06T22:46:32.700Z,2.73659
2023-03-06T22:56:33.850Z,2.63765
2023-03-06T23:06:35.021Z,2.62845
2023-03-06T23:16:36.139Z,2.70678
2023-03-06T23:26:37.274Z,2.55171
2023-03-06T23:36:38.438Z,2.49622
2023-03-06T23:46:39.645Z,2.39665
2023-03-06T23:56:41.078Z,2.22858
